Villanueva del Ariscal, Spain
Current Conditions -  °F | °C
As of 8:00 AM on Friday 19 Dec 2014 (Local Time) from LEZL Reporting Station
Few Clouds Few Clouds  
Wind Chill:   Ceiling: Unl
Heat Index:   Visibility: 4mi
Dew Point:   Wind: 1mph
Humidity: 100%   Direction: NA
Pressure: 30.42"   Gusts: NA
Location:  37.4°N, 6.14°W
Report Text: LEZL 190700Z VRB01KT 7000 FEW001 05/05 Q1030 NOSIG
Loading
Personal Weather Stations






























Interactive Weather Map New forecast layout! Learn more

10-Day Weather Forecast

Advertisements
Track Severe Weather on mobile